sensor_id;sensor_type;location;lat;lon;timestamp;temperature;humidity
72936;DHT22;61085;48.804;9.228;2023-03-01T00:02:00;1.10;99.90
72936;DHT22;61085;48.804;9.228;2023-03-01T00:04:25;1.10;99.90
72936;DHT22;61085;48.804;9.228;2023-03-01T00:06:52;1.10;99.90
72936;DHT22;61085;48.804;9.228;2023-03-01T00:09:18;1.00;99.90
72936;DHT22;61085;48.804;9.228;2023-03-01T00:11:44;1.00;99.90
72936;DHT22;61085;48.804;9.228;2023-03-01T00:14:09;1.00;99.90
72936;DHT22;61085;48.804;9.228;2023-03-01T00:16:41;1.00;99.90
72936;DHT22;61085;48.804;9.228;2023-03-01T00:19:11;1.00;99.90
72936;DHT22;61085;48.804;9.228;2023-03-01T00:21:37;0.90;99.90
72936;DHT22;61085;48.804;9.228;2023-03-01T00:24:03;0.90;99.90
72936;DHT22;61085;48.804;9.228;2023-03-01T00:26:29;0.90;99.90
72936;DHT22;61085;48.804;9.228;2023-03-01T00:28:57;0.90;99.90
72936;DHT22;61085;48.804;9.228;2023-03-01T00:31:28;0.90;99.90
72936;DHT22;61085;48.804;9.228;2023-03-01T00:33:56;0.90;99.90
72936;DHT22;61085;48.804;9.228;2023-03-01T00:36:24;0.90;99.90
72936;DHT22;61085;48.804;9.228;2023-03-01T00:38:51;0.90;99.90
72936;DHT22;61085;48.804;9.228;2023-03-01T00:41:17;0.90;99.90
72936;DHT22;61085;48.804;9.228;2023-03-01T00:43:44;0.90;99.90
72936;DHT22;61085;48.804;9.228;2023-03-01T00:46:13;0.90;99.90
72936;DHT22;61085;48.804;9.228;2023-03-01T00:48:39;0.90;99.90
72936;DHT22;61085;48.804;9.228;2023-03-01T00:51:10;0.90;99.90
72936;DHT22;61085;48.804;9.228;2023-03-01T00:53:37;0.90;99.90
72936;DHT22;61085;48.804;9.228;2023-03-01T00:56:05;0.90;99.90
72936;DHT22;61085;48.804;9.228;2023-03-01T00:58:31;0.90;99.90
72936;DHT22;61085;48.804;9.228;2023-03-01T01:00:56;0.90;99.90
72936;DHT22;61085;48.804;9.228;2023-03-01T01:03:23;0.80;99.90
72936;DHT22;61085;48.804;9.228;2023-03-01T01:05:51;0.80;99.90
72936;DHT22;61085;48.804;9.228;2023-03-01T01:08:17;0.80;99.90
72936;DHT22;61085;48.804;9.228;2023-03-01T01:10:44;0.80;99.90
72936;DHT22;61085;48.804;9.228;2023-03-01T01:13:10;0.70;99.90
72936;DHT22;61085;48.804;9.228;2023-03-01T01:15:36;0.80;99.90
72936;DHT22;61085;48.804;9.228;2023-03-01T01:18:01;0.80;99.90
72936;DHT22;61085;48.804;9.228;2023-03-01T01:20:28;0.80;99.90
72936;DHT22;61085;48.804;9.228;2023-03-01T01:22:53;0.80;99.90
72936;DHT22;61085;48.804;9.228;2023-03-01T01:25:19;0.80;99.90
72936;DHT22;61085;48.804;9.228;2023-03-01T01:27:45;0.80;99.90
72936;DHT22;61085;48.804;9.228;2023-03-01T01:30:11;0.70;99.90
72936;DHT22;61085;48.804;9.228;2023-03-01T01:32:37;0.70;99.90
72936;DHT22;61085;48.804;9.228;2023-03-01T01:35:03;0.60;99.90
72936;DHT22;61085;48.804;9.228;2023-03-01T01:37:28;0.60;99.90
72936;DHT22;61085;48.804;9.228;2023-03-01T01:40:00;0.60;99.90
72936;DHT22;61085;48.804;9.228;2023-03-01T01:42:27;0.50;99.90
72936;DHT22;61085;48.804;9.228;2023-03-01T01:45:24;0.60;99.90
72936;DHT22;61085;48.804;9.228;2023-03-01T01:47:52;0.60;99.90
72936;DHT22;61085;48.804;9.228;2023-03-01T01:50:18;0.60;99.90
72936;DHT22;61085;48.804;9.228;2023-03-01T01:52:45;0.60;99.90
72936;DHT22;61085;48.804;9.228;2023-03-01T01:55:16;0.70;99.90
72936;DHT22;61085;48.804;9.228;2023-03-01T01:57:51;0.80;99.90
72936;DHT22;61085;48.804;9.228;2023-03-01T02:00:21;0.80;99.90
72936;DHT22;61085;48.804;9.228;2023-03-01T02:02:50;0.90;99.90
72936;DHT22;61085;48.804;9.228;2023-03-01T02:08:28;0.90;99.90
72936;DHT22;61085;48.804;9.228;2023-03-01T02:10:56;0.90;99.90
72936;DHT22;61085;48.804;9.228;2023-03-01T02:13:23;0.90;99.90
72936;DHT22;61085;48.804;9.228;2023-03-01T02:15:48;0.80;99.90
72936;DHT22;61085;48.804;9.228;2023-03-01T02:18:17;0.90;99.90
72936;DHT22;61085;48.804;9.228;2023-03-01T02:21:08;1.00;99.90
72936;DHT22;61085;48.804;9.228;2023-03-01T02:23:38;1.10;99.90
72936;DHT22;61085;48.804;9.228;2023-03-01T02:26:21;1.10;99.90
72936;DHT22;61085;48.804;9.228;2023-03-01T02:28:50;1.10;99.90
72936;DHT22;61085;48.804;9.228;2023-03-01T02:31:19;1.20;99.90
72936;DHT22;61085;48.804;9.228;2023-03-01T02:34:04;1.10;99.90
72936;DHT22;61085;48.804;9.228;2023-03-01T02:36:55;1.10;99.90
72936;DHT22;61085;48.804;9.228;2023-03-01T02:39:27;1.10;99.90
72936;DHT22;61085;48.804;9.228;2023-03-01T02:41:55;1.10;99.90
72936;DHT22;61085;48.804;9.228;2023-03-01T02:44:22;1.10;99.90
72936;DHT22;61085;48.804;9.228;2023-03-01T02:46:50;1.10;99.90
72936;DHT22;61085;48.804;9.228;2023-03-01T02:49:28;1.10;99.90
72936;DHT22;61085;48.804;9.228;2023-03-01T02:57:34;1.30;99.90
72936;DHT22;61085;48.804;9.228;2023-03-01T03:00:05;1.40;99.90
72936;DHT22;61085;48.804;9.228;2023-03-01T03:02:35;1.50;99.90
72936;DHT22;61085;48.804;9.228;2023-03-01T03:05:10;1.50;99.90
72936;DHT22;61085;48.804;9.228;2023-03-01T03:07:38;1.50;99.90
72936;DHT22;61085;48.804;9.228;2023-03-01T03:10:06;1.50;99.90
72936;DHT22;61085;48.804;9.228;2023-03-01T03:12:31;1.50;99.90
72936;DHT22;61085;48.804;9.228;2023-03-01T03:14:57;1.60;99.90
72936;DHT22;61085;48.804;9.228;2023-03-01T03:17:23;1.60;99.90
72936;DHT22;61085;48.804;9.228;2023-03-01T03:19:48;1.50;99.90
72936;DHT22;61085;48.804;9.228;2023-03-01T03:22:14;1.50;99.90
72936;DHT22;61085;48.804;9.228;2023-03-01T03:24:40;1.50;99.90
72936;DHT22;61085;48.804;9.228;2023-03-01T03:27:06;1.60;99.90
72936;DHT22;61085;48.804;9.228;2023-03-01T03:29:32;1.50;99.90
72936;DHT22;61085;48.804;9.228;2023-03-01T03:32:00;1.40;99.90
72936;DHT22;61085;48.804;9.228;2023-03-01T03:34:26;1.50;99.90
72936;DHT22;61085;48.804;9.228;2023-03-01T03:36:55;1.40;99.90
72936;DHT22;61085;48.804;9.228;2023-03-01T03:39:27;1.40;99.90
72936;DHT22;61085;48.804;9.228;2023-03-01T03:41:54;1.50;99.90
72936;DHT22;61085;48.804;9.228;2023-03-01T03:44:20;1.30;99.90
72936;DHT22;61085;48.804;9.228;2023-03-01T03:46:46;1.20;99.90
72936;DHT22;61085;48.804;9.228;2023-03-01T03:49:12;1.20;99.90
72936;DHT22;61085;48.804;9.228;2023-03-01T03:51:37;1.20;99.90
72936;DHT22;61085;48.804;9.228;2023-03-01T03:54:03;1.30;99.90
72936;DHT22;61085;48.804;9.228;2023-03-01T03:56:29;1.30;99.90
72936;DHT22;61085;48.804;9.228;2023-03-01T03:58:54;1.30;99.90
72936;DHT22;61085;48.804;9.228;2023-03-01T04:01:20;1.20;99.90
72936;DHT22;61085;48.804;9.228;2023-03-01T04:03:45;1.30;99.90
72936;DHT22;61085;48.804;9.228;2023-03-01T04:06:19;1.30;99.90
72936;DHT22;61085;48.804;9.228;2023-03-01T04:08:45;1.20;99.90
72936;DHT22;61085;48.804;9.228;2023-03-01T04:11:11;1.30;99.90
72936;DHT22;61085;48.804;9.228;2023-03-01T04:13:54;1.30;99.90
72936;DHT22;61085;48.804;9.228;2023-03-01T04:16:20;1.20;99.90
72936;DHT22;61085;48.804;9.228;2023-03-01T04:18:46;1.20;99.90
72936;DHT22;61085;48.804;9.228;2023-03-01T04:21:12;1.20;99.90
72936;DHT22;61085;48.804;9.228;2023-03-01T04:23:38;1.20;99.90
72936;DHT22;61085;48.804;9.228;2023-03-01T04:26:04;1.30;99.90
72936;DHT22;61085;48.804;9.228;2023-03-01T04:28:31;1.30;99.90
72936;DHT22;61085;48.804;9.228;2023-03-01T04:31:03;1.40;99.90
72936;DHT22;61085;48.804;9.228;2023-03-01T04:33:39;1.40;99.90
72936;DHT22;61085;48.804;9.228;2023-03-01T04:36:05;1.50;99.90
72936;DHT22;61085;48.804;9.228;2023-03-01T04:38:32;1.40;99.90
72936;DHT22;61085;48.804;9.228;2023-03-01T04:40:58;1.50;99.90
72936;DHT22;61085;48.804;9.228;2023-03-01T04:43:23;1.40;99.90
72936;DHT22;61085;48.804;9.228;2023-03-01T04:45:49;1.30;99.90
72936;DHT22;61085;48.804;9.228;2023-03-01T04:48:14;1.30;99.90
72936;DHT22;61085;48.804;9.228;2023-03-01T04:50:40;1.30;99.90
72936;DHT22;61085;48.804;9.228;2023-03-01T04:53:06;1.40;99.90
72936;DHT22;61085;48.804;9.228;2023-03-01T04:55:31;1.30;99.90
72936;DHT22;61085;48.804;9.228;2023-03-01T04:57:57;1.30;99.90
72936;DHT22;61085;48.804;9.228;2023-03-01T05:00:23;1.30;99.90
72936;DHT22;61085;48.804;9.228;2023-03-01T05:02:57;1.30;99.90
72936;DHT22;61085;48.804;9.228;2023-03-01T05:05:27;1.30;99.90
72936;DHT22;61085;48.804;9.228;2023-03-01T05:07:55;1.30;99.90
72936;DHT22;61085;48.804;9.228;2023-03-01T05:10:22;1.30;99.90
72936;DHT22;61085;48.804;9.228;2023-03-01T05:12:47;1.30;99.90
72936;DHT22;61085;48.804;9.228;2023-03-01T05:15:13;1.30;99.90
72936;DHT22;61085;48.804;9.228;2023-03-01T05:17:39;1.40;99.90
72936;DHT22;61085;48.804;9.228;2023-03-01T05:20:05;1.40;99.90
72936;DHT22;61085;48.804;9.228;2023-03-01T05:22:34;1.40;99.90
72936;DHT22;61085;48.804;9.228;2023-03-01T05:25:00;1.40;99.90
72936;DHT22;61085;48.804;9.228;2023-03-01T05:27:26;1.40;99.90
72936;DHT22;61085;48.804;9.228;2023-03-01T05:29:52;1.40;99.90
72936;DHT22;61085;48.804;9.228;2023-03-01T05:32:18;1.40;99.90
72936;DHT22;61085;48.804;9.228;2023-03-01T05:34:43;1.30;99.90
72936;DHT22;61085;48.804;9.228;2023-03-01T05:37:12;1.30;99.90
72936;DHT22;61085;48.804;9.228;2023-03-01T05:39:37;1.30;99.90
72936;DHT22;61085;48.804;9.228;2023-03-01T05:42:03;1.30;99.90
72936;DHT22;61085;48.804;9.228;2023-03-01T05:44:29;1.30;99.90
72936;DHT22;61085;48.804;9.228;2023-03-01T05:46:57;1.40;99.90
72936;DHT22;61085;48.804;9.228;2023-03-01T05:49:23;1.40;99.90
72936;DHT22;61085;48.804;9.228;2023-03-01T05:51:51;1.40;99.90
72936;DHT22;61085;48.804;9.228;2023-03-01T05:54:17;1.30;99.90
72936;DHT22;61085;48.804;9.228;2023-03-01T05:56:44;1.30;99.90
72936;DHT22;61085;48.804;9.228;2023-03-01T05:59:10;1.50;99.90
72936;DHT22;61085;48.804;9.228;2023-03-01T06:01:36;1.20;99.90
72936;DHT22;61085;48.804;9.228;2023-03-01T06:04:03;1.20;99.90
72936;DHT22;61085;48.804;9.228;2023-03-01T06:06:29;1.20;99.90
72936;DHT22;61085;48.804;9.228;2023-03-01T06:08:55;1.20;99.90
72936;DHT22;61085;48.804;9.228;2023-03-01T06:11:21;1.20;99.90
72936;DHT22;61085;48.804;9.228;2023-03-01T06:13:47;1.20;99.90
72936;DHT22;61085;48.804;9.228;2023-03-01T06:16:13;1.20;99.90
72936;DHT22;61085;48.804;9.228;2023-03-01T06:18:39;1.30;99.90
72936;DHT22;61085;48.804;9.228;2023-03-01T06:21:07;1.20;99.90
72936;DHT22;61085;48.804;9.228;2023-03-01T06:23:36;1.20;99.90
72936;DHT22;61085;48.804;9.228;2023-03-01T06:26:06;1.10;99.90
72936;DHT22;61085;48.804;9.228;2023-03-01T06:28:32;1.10;99.90
72936;DHT22;61085;48.804;9.228;2023-03-01T06:30:57;1.30;99.90
72936;DHT22;61085;48.804;9.228;2023-03-01T06:33:23;1.70;99.90
72936;DHT22;61085;48.804;9.228;2023-03-01T06:35:50;1.40;99.90
72936;DHT22;61085;48.804;9.228;2023-03-01T06:38:16;1.40;99.90
72936;DHT22;61085;48.804;9.228;2023-03-01T06:40:44;1.30;99.90
72936;DHT22;61085;48.804;9.228;2023-03-01T06:43:09;1.50;99.90
72936;DHT22;61085;48.804;9.228;2023-03-01T06:45:36;1.40;99.90
72936;DHT22;61085;48.804;9.228;2023-03-01T06:48:06;1.80;99.90
72936;DHT22;61085;48.804;9.228;2023-03-01T06:50:35;2.30;99.50
72936;DHT22;61085;48.804;9.228;2023-03-01T06:53:01;2.50;97.90
72936;DHT22;61085;48.804;9.228;2023-03-01T06:55:27;3.10;95.90
72936;DHT22;61085;48.804;9.228;2023-03-01T06:57:57;3.80;92.70
72936;DHT22;61085;48.804;9.228;2023-03-01T07:00:23;3.70;92.20
72936;DHT22;61085;48.804;9.228;2023-03-01T07:02:49;3.50;92.50
72936;DHT22;61085;48.804;9.228;2023-03-01T07:05:15;3.00;94.40
72936;DHT22;61085;48.804;9.228;2023-03-01T07:17:25;4.60;82.80
72936;DHT22;61085;48.804;9.228;2023-03-01T07:19:51;4.50;85.20
72936;DHT22;61085;48.804;9.228;2023-03-01T07:22:16;4.50;85.30
72936;DHT22;61085;48.804;9.228;2023-03-01T07:24:43;4.40;85.80
72936;DHT22;61085;48.804;9.228;2023-03-01T07:27:08;4.50;84.00
72936;DHT22;61085;48.804;9.228;2023-03-01T07:29:34;4.30;86.00
72936;DHT22;61085;48.804;9.228;2023-03-01T07:32:02;5.10;81.30
72936;DHT22;61085;48.804;9.228;2023-03-01T07:34:28;5.40;78.60
72936;DHT22;61085;48.804;9.228;2023-03-01T07:36:54;5.50;77.50
72936;DHT22;61085;48.804;9.228;2023-03-01T07:39:19;5.30;78.90
72936;DHT22;61085;48.804;9.228;2023-03-01T07:41:45;6.00;74.90
72936;DHT22;61085;48.804;9.228;2023-03-01T07:44:10;5.90;71.30
72936;DHT22;61085;48.804;9.228;2023-03-01T07:46:36;5.70;73.80
72936;DHT22;61085;48.804;9.228;2023-03-01T07:49:02;5.80;72.00
72936;DHT22;61085;48.804;9.228;2023-03-01T07:51:27;6.10;71.70
72936;DHT22;61085;48.804;9.228;2023-03-01T07:53:53;5.90;70.40
72936;DHT22;61085;48.804;9.228;2023-03-01T07:56:19;5.80;72.00
72936;DHT22;61085;48.804;9.228;2023-03-01T07:58:45;5.80;72.50
72936;DHT22;61085;48.804;9.228;2023-03-01T08:01:14;6.00;71.20
72936;DHT22;61085;48.804;9.228;2023-03-01T08:03:40;5.60;72.70
72936;DHT22;61085;48.804;9.228;2023-03-01T08:06:08;5.80;72.00
72936;DHT22;61085;48.804;9.228;2023-03-01T08:08:34;6.40;69.80
72936;DHT22;61085;48.804;9.228;2023-03-01T08:11:02;6.60;67.00
72936;DHT22;61085;48.804;9.228;2023-03-01T08:13:28;6.80;64.70
72936;DHT22;61085;48.804;9.228;2023-03-01T08:15:54;7.00;61.60
72936;DHT22;61085;48.804;9.228;2023-03-01T08:18:21;7.20;63.30
72936;DHT22;61085;48.804;9.228;2023-03-01T08:20:47;6.90;61.10
72936;DHT22;61085;48.804;9.228;2023-03-01T08:23:13;7.50;60.50
72936;DHT22;61085;48.804;9.228;2023-03-01T08:25:39;7.20;61.40
72936;DHT22;61085;48.804;9.228;2023-03-01T08:28:05;7.90;56.60
72936;DHT22;61085;48.804;9.228;2023-03-01T08:30:31;8.50;54.80
72936;DHT22;61085;48.804;9.228;2023-03-01T08:32:56;7.60;56.70
72936;DHT22;61085;48.804;9.228;2023-03-01T08:35:22;7.90;55.50
72936;DHT22;61085;48.804;9.228;2023-03-01T08:37:48;7.20;58.70
72936;DHT22;61085;48.804;9.228;2023-03-01T08:40:14;7.70;56.80
72936;DHT22;61085;48.804;9.228;2023-03-01T08:42:41;8.10;56.00
72936;DHT22;61085;48.804;9.228;2023-03-01T08:45:09;8.20;56.20
72936;DHT22;61085;48.804;9.228;2023-03-01T08:47:35;7.80;55.10
72936;DHT22;61085;48.804;9.228;2023-03-01T08:50:04;7.70;55.90
72936;DHT22;61085;48.804;9.228;2023-03-01T08:52:29;7.50;56.70
72936;DHT22;61085;48.804;9.228;2023-03-01T08:54:58;7.40;56.70
72936;DHT22;61085;48.804;9.228;2023-03-01T08:57:26;7.60;57.40
72936;DHT22;61085;48.804;9.228;2023-03-01T08:59:52;7.00;59.30
72936;DHT22;61085;48.804;9.228;2023-03-01T09:02:18;6.80;63.20
72936;DHT22;61085;48.804;9.228;2023-03-01T09:04:44;6.70;63.10
72936;DHT22;61085;48.804;9.228;2023-03-01T09:07:10;6.50;64.80
72936;DHT22;61085;48.804;9.228;2023-03-01T09:09:37;6.10;67.70
72936;DHT22;61085;48.804;9.228;2023-03-01T09:12:04;5.10;74.00
72936;DHT22;61085;48.804;9.228;2023-03-01T09:14:29;5.00;78.20
72936;DHT22;61085;48.804;9.228;2023-03-01T09:16:56;4.70;80.50
72936;DHT22;61085;48.804;9.228;2023-03-01T09:19:23;4.30;83.10
72936;DHT22;61085;48.804;9.228;2023-03-01T09:21:49;4.50;84.00
72936;DHT22;61085;48.804;9.228;2023-03-01T09:24:20;4.40;85.00
72936;DHT22;61085;48.804;9.228;2023-03-01T09:26:46;4.60;84.70
72936;DHT22;61085;48.804;9.228;2023-03-01T09:29:13;5.20;81.20
72936;DHT22;61085;48.804;9.228;2023-03-01T09:31:39;5.00;80.50
72936;DHT22;61085;48.804;9.228;2023-03-01T09:34:05;5.10;81.40
72936;DHT22;61085;48.804;9.228;2023-03-01T09:36:31;5.50;79.20
72936;DHT22;61085;48.804;9.228;2023-03-01T09:38:57;5.30;77.20
72936;DHT22;61085;48.804;9.228;2023-03-01T09:44:38;5.00;80.50
72936;DHT22;61085;48.804;9.228;2023-03-01T09:47:17;5.20;79.80
72936;DHT22;61085;48.804;9.228;2023-03-01T09:49:45;4.80;80.90
72936;DHT22;61085;48.804;9.228;2023-03-01T09:52:38;5.10;80.90
72936;DHT22;61085;48.804;9.228;2023-03-01T09:55:13;5.00;81.60
72936;DHT22;61085;48.804;9.228;2023-03-01T09:57:44;5.30;80.30
72936;DHT22;61085;48.804;9.228;2023-03-01T10:00:38;5.40;78.80
72936;DHT22;61085;48.804;9.228;2023-03-01T10:08:30;5.50;74.30
72936;DHT22;61085;48.804;9.228;2023-03-01T10:10:59;5.40;73.00
72936;DHT22;61085;48.804;9.228;2023-03-01T10:17:03;5.30;75.90
72936;DHT22;61085;48.804;9.228;2023-03-01T10:19:43;5.40;74.70
72936;DHT22;61085;48.804;9.228;2023-03-01T10:22:26;5.50;75.20
72936;DHT22;61085;48.804;9.228;2023-03-01T10:24:58;5.40;75.50
72936;DHT22;61085;48.804;9.228;2023-03-01T10:27:29;5.40;75.30
72936;DHT22;61085;48.804;9.228;2023-03-01T10:32:39;5.60;73.70
72936;DHT22;61085;48.804;9.228;2023-03-01T10:35:20;5.60;72.80
72936;DHT22;61085;48.804;9.228;2023-03-01T10:38:07;5.80;72.90
72936;DHT22;61085;48.804;9.228;2023-03-01T10:40:49;5.80;72.90
72936;DHT22;61085;48.804;9.228;2023-03-01T10:43:15;5.80;71.20
72936;DHT22;61085;48.804;9.228;2023-03-01T10:45:41;6.10;71.00
72936;DHT22;61085;48.804;9.228;2023-03-01T10:48:18;6.10;70.80
72936;DHT22;61085;48.804;9.228;2023-03-01T10:51:12;6.00;71.30
72936;DHT22;61085;48.804;9.228;2023-03-01T10:53:48;6.00;72.60
72936;DHT22;61085;48.804;9.228;2023-03-01T10:56:15;5.90;71.20
72936;DHT22;61085;48.804;9.228;2023-03-01T10:59:00;6.10;70.90
72936;DHT22;61085;48.804;9.228;2023-03-01T11:01:34;6.00;71.30
72936;DHT22;61085;48.804;9.228;2023-03-01T11:06:33;6.20;69.40
72936;DHT22;61085;48.804;9.228;2023-03-01T11:09:20;6.30;69.20
72936;DHT22;61085;48.804;9.228;2023-03-01T11:11:46;6.80;68.80
72936;DHT22;61085;48.804;9.228;2023-03-01T11:16:48;7.00;64.00
72936;DHT22;61085;48.804;9.228;2023-03-01T11:19:21;6.90;64.50
72936;DHT22;61085;48.804;9.228;2023-03-01T11:21:59;6.90;65.70
72936;DHT22;61085;48.804;9.228;2023-03-01T11:24:32;7.00;63.70
72936;DHT22;61085;48.804;9.228;2023-03-01T11:27:02;6.90;63.20
72936;DHT22;61085;48.804;9.228;2023-03-01T11:30:15;6.90;65.00
72936;DHT22;61085;48.804;9.228;2023-03-01T11:32:24;7.00;64.70
72936;DHT22;61085;48.804;9.228;2023-03-01T11:35:10;7.00;65.30
72936;DHT22;61085;48.804;9.228;2023-03-01T11:37:39;6.90;64.80
72936;DHT22;61085;48.804;9.228;2023-03-01T11:46:29;6.80;65.60
72936;DHT22;61085;48.804;9.228;2023-03-01T11:49:08;7.00;65.00
72936;DHT22;61085;48.804;9.228;2023-03-01T11:52:01;6.90;64.60
72936;DHT22;61085;48.804;9.228;2023-03-01T12:08:01;7.30;63.20
72936;DHT22;61085;48.804;9.228;2023-03-01T12:50:04;8.20;58.60
72936;DHT22;61085;48.804;9.228;2023-03-01T12:52:53;8.40;58.50
72936;DHT22;61085;48.804;9.228;2023-03-01T12:55:33;8.40;58.00
72936;DHT22;61085;48.804;9.228;2023-03-01T12:58:05;8.20;57.70
72936;DHT22;61085;48.804;9.228;2023-03-01T13:00:50;8.10;58.90
72936;DHT22;61085;48.804;9.228;2023-03-01T13:03:44;8.30;58.90
72936;DHT22;61085;48.804;9.228;2023-03-01T13:08:55;8.30;58.00
72936;DHT22;61085;48.804;9.228;2023-03-01T13:11:23;8.30;57.70
72936;DHT22;61085;48.804;9.228;2023-03-01T13:13:49;8.50;58.00
72936;DHT22;61085;48.804;9.228;2023-03-01T13:16:22;8.60;57.10
72936;DHT22;61085;48.804;9.228;2023-03-01T13:37:22;8.40;57.00
72936;DHT22;61085;48.804;9.228;2023-03-01T13:39:48;8.30;58.20
72936;DHT22;61085;48.804;9.228;2023-03-01T13:42:38;8.40;59.00
72936;DHT22;61085;48.804;9.228;2023-03-01T13:48:09;8.30;58.60
72936;DHT22;61085;48.804;9.228;2023-03-01T13:53:14;8.40;59.00
72936;DHT22;61085;48.804;9.228;2023-03-01T13:59:18;8.50;59.70
72936;DHT22;61085;48.804;9.228;2023-03-01T14:01:43;8.30;60.20
72936;DHT22;61085;48.804;9.228;2023-03-01T14:06:48;8.40;61.50
72936;DHT22;61085;48.804;9.228;2023-03-01T14:09:20;8.30;61.40
72936;DHT22;61085;48.804;9.228;2023-03-01T14:17:49;8.00;62.30
72936;DHT22;61085;48.804;9.228;2023-03-01T14:20:19;7.90;64.40
72936;DHT22;61085;48.804;9.228;2023-03-01T14:22:46;7.90;64.50
72936;DHT22;61085;48.804;9.228;2023-03-01T14:30:50;8.10;64.20
72936;DHT22;61085;48.804;9.228;2023-03-01T14:33:28;8.30;63.90
72936;DHT22;61085;48.804;9.228;2023-03-01T14:41:14;8.50;62.90
72936;DHT22;61085;48.804;9.228;2023-03-01T14:46:26;8.60;62.20
72936;DHT22;61085;48.804;9.228;2023-03-01T14:51:22;8.50;61.10
72936;DHT22;61085;48.804;9.228;2023-03-01T14:53:48;8.40;61.30
72936;DHT22;61085;48.804;9.228;2023-03-01T14:56:16;8.60;62.50
72936;DHT22;61085;48.804;9.228;2023-03-01T14:58:44;8.40;62.60
72936;DHT22;61085;48.804;9.228;2023-03-01T15:01:16;8.30;62.10
72936;DHT22;61085;48.804;9.228;2023-03-01T15:03:49;8.40;61.90
72936;DHT22;61085;48.804;9.228;2023-03-01T15:06:22;8.30;61.90
72936;DHT22;61085;48.804;9.228;2023-03-01T15:08:51;8.40;63.10
72936;DHT22;61085;48.804;9.228;2023-03-01T15:11:22;8.30;63.50
72936;DHT22;61085;48.804;9.228;2023-03-01T15:16:23;8.20;63.70
72936;DHT22;61085;48.804;9.228;2023-03-01T15:18:55;8.10;64.80
72936;DHT22;61085;48.804;9.228;2023-03-01T15:24:20;8.30;64.70
72936;DHT22;61085;48.804;9.228;2023-03-01T15:26:57;8.30;63.50
72936;DHT22;61085;48.804;9.228;2023-03-01T15:29:29;8.30;64.00
72936;DHT22;61085;48.804;9.228;2023-03-01T15:32:34;8.30;63.60
72936;DHT22;61085;48.804;9.228;2023-03-01T15:35:01;8.30;62.50
72936;DHT22;61085;48.804;9.228;2023-03-01T15:37:48;8.40;62.10
72936;DHT22;61085;48.804;9.228;2023-03-01T15:40:29;8.30;62.90
72936;DHT22;61085;48.804;9.228;2023-03-01T15:43:02;8.30;62.60
72936;DHT22;61085;48.804;9.228;2023-03-01T15:45:30;8.30;61.60
72936;DHT22;61085;48.804;9.228;2023-03-01T15:50:35;8.20;61.40
72936;DHT22;61085;48.804;9.228;2023-03-01T15:53:10;8.20;61.00
72936;DHT22;61085;48.804;9.228;2023-03-01T15:55:37;8.20;62.20
72936;DHT22;61085;48.804;9.228;2023-03-01T15:58:14;8.20;61.90
72936;DHT22;61085;48.804;9.228;2023-03-01T16:00:41;8.20;61.90
72936;DHT22;61085;48.804;9.228;2023-03-01T16:03:10;8.20;60.90
72936;DHT22;61085;48.804;9.228;2023-03-01T16:05:37;8.10;61.90
72936;DHT22;61085;48.804;9.228;2023-03-01T16:08:05;8.10;61.30
72936;DHT22;61085;48.804;9.228;2023-03-01T16:10:40;8.30;62.20
72936;DHT22;61085;48.804;9.228;2023-03-01T16:13:06;8.10;61.20
72936;DHT22;61085;48.804;9.228;2023-03-01T16:15:36;8.10;61.20
72936;DHT22;61085;48.804;9.228;2023-03-01T16:20:30;8.00;60.90
72936;DHT22;61085;48.804;9.228;2023-03-01T16:23:00;8.00;61.80
72936;DHT22;61085;48.804;9.228;2023-03-01T16:25:27;8.00;61.60
72936;DHT22;61085;48.804;9.228;2023-03-01T16:27:52;8.00;62.00
72936;DHT22;61085;48.804;9.228;2023-03-01T16:30:21;7.90;62.50
72936;DHT22;61085;48.804;9.228;2023-03-01T16:32:47;7.90;62.90
72936;DHT22;61085;48.804;9.228;2023-03-01T16:35:16;7.90;63.90
72936;DHT22;61085;48.804;9.228;2023-03-01T16:37:42;7.90;64.20
72936;DHT22;61085;48.804;9.228;2023-03-01T16:40:22;7.80;64.30
72936;DHT22;61085;48.804;9.228;2023-03-01T16:42:49;7.80;64.40
72936;DHT22;61085;48.804;9.228;2023-03-01T16:45:15;7.80;63.60
72936;DHT22;61085;48.804;9.228;2023-03-01T16:47:41;7.80;63.80
72936;DHT22;61085;48.804;9.228;2023-03-01T16:50:07;7.70;64.70
72936;DHT22;61085;48.804;9.228;2023-03-01T16:52:33;7.70;64.20
72936;DHT22;61085;48.804;9.228;2023-03-01T16:54:59;7.70;65.00
72936;DHT22;61085;48.804;9.228;2023-03-01T16:57:25;7.60;65.10
72936;DHT22;61085;48.804;9.228;2023-03-01T16:59:54;7.60;65.40
72936;DHT22;61085;48.804;9.228;2023-03-01T17:02:19;7.50;66.30
72936;DHT22;61085;48.804;9.228;2023-03-01T17:04:54;7.50;66.80
72936;DHT22;61085;48.804;9.228;2023-03-01T17:07:20;7.50;66.80
72936;DHT22;61085;48.804;9.228;2023-03-01T17:09:46;7.40;67.60
72936;DHT22;61085;48.804;9.228;2023-03-01T17:12:12;7.40;68.70
72936;DHT22;61085;48.804;9.228;2023-03-01T17:14:39;7.30;69.40
72936;DHT22;61085;48.804;9.228;2023-03-01T17:17:07;7.30;70.60
72936;DHT22;61085;48.804;9.228;2023-03-01T17:19:33;7.20;71.20
72936;DHT22;61085;48.804;9.228;2023-03-01T17:22:01;7.20;71.40
72936;DHT22;61085;48.804;9.228;2023-03-01T17:24:27;7.10;72.10
72936;DHT22;61085;48.804;9.228;2023-03-01T17:26:54;7.10;72.30
72936;DHT22;61085;48.804;9.228;2023-03-01T17:29:19;7.00;72.90
72936;DHT22;61085;48.804;9.228;2023-03-01T17:31:45;7.00;73.50
72936;DHT22;61085;48.804;9.228;2023-03-01T17:34:11;6.90;73.80
72936;DHT22;61085;48.804;9.228;2023-03-01T17:36:36;6.90;73.50
72936;DHT22;61085;48.804;9.228;2023-03-01T17:39:09;6.90;74.20
72936;DHT22;61085;48.804;9.228;2023-03-01T17:41:35;6.90;74.20
72936;DHT22;61085;48.804;9.228;2023-03-01T17:44:01;6.80;74.60
72936;DHT22;61085;48.804;9.228;2023-03-01T17:46:26;6.70;76.00
72936;DHT22;61085;48.804;9.228;2023-03-01T17:48:54;6.90;76.60
72936;DHT22;61085;48.804;9.228;2023-03-01T17:51:20;6.60;76.90
72936;DHT22;61085;48.804;9.228;2023-03-01T17:53:46;6.60;77.70
72936;DHT22;61085;48.804;9.228;2023-03-01T17:56:11;6.50;78.20
72936;DHT22;61085;48.804;9.228;2023-03-01T17:58:37;6.50;78.40
72936;DHT22;61085;48.804;9.228;2023-03-01T18:01:12;6.40;79.10
72936;DHT22;61085;48.804;9.228;2023-03-01T18:03:39;6.30;80.20
72936;DHT22;61085;48.804;9.228;2023-03-01T18:06:17;6.30;80.80
72936;DHT22;61085;48.804;9.228;2023-03-01T18:08:42;6.20;81.90
72936;DHT22;61085;48.804;9.228;2023-03-01T18:11:10;6.20;83.80
72936;DHT22;61085;48.804;9.228;2023-03-01T18:13:36;6.10;83.40
72936;DHT22;61085;48.804;9.228;2023-03-01T18:16:09;6.10;82.70
72936;DHT22;61085;48.804;9.228;2023-03-01T18:18:35;6.10;83.40
72936;DHT22;61085;48.804;9.228;2023-03-01T18:21:02;6.00;82.90
72936;DHT22;61085;48.804;9.228;2023-03-01T18:23:29;5.90;84.00
72936;DHT22;61085;48.804;9.228;2023-03-01T18:25:59;5.90;83.60
72936;DHT22;61085;48.804;9.228;2023-03-01T18:28:27;6.00;83.70
72936;DHT22;61085;48.804;9.228;2023-03-01T18:31:07;5.90;84.70
72936;DHT22;61085;48.804;9.228;2023-03-01T18:33:35;5.90;85.50
72936;DHT22;61085;48.804;9.228;2023-03-01T18:36:01;5.80;85.90
72936;DHT22;61085;48.804;9.228;2023-03-01T18:38:27;5.80;86.30
72936;DHT22;61085;48.804;9.228;2023-03-01T18:40:54;5.80;86.30